Farmington, Washington
Current Conditions -  °F | °C
As of 9:32 AM on Sunday 23 Nov 2014 (Local Time) from KPUW Reporting Station
Broken Clouds Broken Clouds  
Wind Chill: 33°   Ceiling: 5000
Heat Index: 41°   Visibility: 10mi
Dew Point: 34°   Wind: 14mph
Humidity: 76%   Direction: 230°SW
Pressure: 30.17"   Gusts: NA
Location:  47.09°N, 117.04°W
Report Text: KPUW 231732Z AUTO 23012KT 10SM SCT029 BKN050 05/01 A3017 RMK AO2 RAE15 P0000 T00500011
Loading
Personal Weather Stations






























Interactive Weather Map New forecast layout! Learn more

10-Day Weather Forecast

Advertisements
Track Severe Weather on mobile